sensor_id;sensor_type;location;lat;lon;timestamp;P1;durP1;ratioP1;P2;durP2;ratioP2
54983;SDS011;40884;53.562;9.940;2023-03-01T00:00:48;11.87;;;6.37;;
54983;SDS011;40884;53.562;9.940;2023-03-01T00:01:48;11.33;;;6.10;;
54983;SDS011;40884;53.562;9.940;2023-03-01T00:02:48;10.43;;;6.27;;
54983;SDS011;40884;53.562;9.940;2023-03-01T00:03:48;8.90;;;5.83;;
54983;SDS011;40884;53.562;9.940;2023-03-01T00:04:49;9.60;;;5.77;;
54983;SDS011;40884;53.562;9.940;2023-03-01T00:05:49;8.73;;;6.07;;
54983;SDS011;40884;53.562;9.940;2023-03-01T00:06:49;9.87;;;6.10;;
54983;SDS011;40884;53.562;9.940;2023-03-01T00:07:52;10.70;;;5.60;;
54983;SDS011;40884;53.562;9.940;2023-03-01T00:08:52;8.77;;;5.90;;
54983;SDS011;40884;53.562;9.940;2023-03-01T00:09:52;13.03;;;5.80;;
54983;SDS011;40884;53.562;9.940;2023-03-01T00:11:03;8.63;;;5.53;;
54983;SDS011;40884;53.562;9.940;2023-03-01T00:12:03;8.98;;;5.43;;
54983;SDS011;40884;53.562;9.940;2023-03-01T00:13:03;11.73;;;5.90;;
54983;SDS011;40884;53.562;9.940;2023-03-01T00:14:04;11.17;;;5.90;;
54983;SDS011;40884;53.562;9.940;2023-03-01T00:15:04;10.20;;;5.50;;
54983;SDS011;40884;53.562;9.940;2023-03-01T00:16:05;8.47;;;6.00;;
54983;SDS011;40884;53.562;9.940;2023-03-01T00:17:05;10.27;;;5.60;;
54983;SDS011;40884;53.562;9.940;2023-03-01T00:18:06;10.93;;;5.90;;
54983;SDS011;40884;53.562;9.940;2023-03-01T00:19:12;9.70;;;6.47;;
54983;SDS011;40884;53.562;9.940;2023-03-01T00:20:13;10.43;;;6.10;;
54983;SDS011;40884;53.562;9.940;2023-03-01T00:21:13;11.07;;;6.40;;
54983;SDS011;40884;53.562;9.940;2023-03-01T00:22:13;9.47;;;5.93;;
54983;SDS011;40884;53.562;9.940;2023-03-01T00:23:13;10.80;;;6.07;;
54983;SDS011;40884;53.562;9.940;2023-03-01T00:24:14;11.30;;;6.73;;
54983;SDS011;40884;53.562;9.940;2023-03-01T00:25:14;11.37;;;6.63;;
54983;SDS011;40884;53.562;9.940;2023-03-01T00:26:15;10.93;;;7.43;;
54983;SDS011;40884;53.562;9.940;2023-03-01T00:27:15;14.75;;;8.57;;
54983;SDS011;40884;53.562;9.940;2023-03-01T00:28:16;17.37;;;10.67;;
54983;SDS011;40884;53.562;9.940;2023-03-01T00:29:16;18.80;;;11.17;;
54983;SDS011;40884;53.562;9.940;2023-03-01T00:30:16;16.37;;;10.57;;
54983;SDS011;40884;53.562;9.940;2023-03-01T00:31:18;14.87;;;8.73;;
54983;SDS011;40884;53.562;9.940;2023-03-01T00:32:18;12.30;;;7.60;;
54983;SDS011;40884;53.562;9.940;2023-03-01T00:33:19;13.67;;;6.97;;
54983;SDS011;40884;53.562;9.940;2023-03-01T00:34:19;9.87;;;7.03;;
54983;SDS011;40884;53.562;9.940;2023-03-01T00:35:19;13.43;;;7.07;;
54983;SDS011;40884;53.562;9.940;2023-03-01T00:36:19;10.33;;;6.20;;
54983;SDS011;40884;53.562;9.940;2023-03-01T00:37:20;12.77;;;6.77;;
54983;SDS011;40884;53.562;9.940;2023-03-01T00:38:20;10.80;;;6.97;;
54983;SDS011;40884;53.562;9.940;2023-03-01T00:39:20;10.00;;;6.80;;
54983;SDS011;40884;53.562;9.940;2023-03-01T00:40:21;12.67;;;6.93;;
54983;SDS011;40884;53.562;9.940;2023-03-01T00:41:21;11.93;;;6.70;;
54983;SDS011;40884;53.562;9.940;2023-03-01T00:42:21;15.60;;;7.43;;
54983;SDS011;40884;53.562;9.940;2023-03-01T00:43:21;11.03;;;6.63;;
54983;SDS011;40884;53.562;9.940;2023-03-01T00:44:21;12.57;;;6.80;;
54983;SDS011;40884;53.562;9.940;2023-03-01T00:45:23;17.52;;;6.90;;
54983;SDS011;40884;53.562;9.940;2023-03-01T00:46:24;14.10;;;6.77;;
54983;SDS011;40884;53.562;9.940;2023-03-01T00:47:24;13.02;;;6.90;;
54983;SDS011;40884;53.562;9.940;2023-03-01T00:48:24;12.17;;;6.97;;
54983;SDS011;40884;53.562;9.940;2023-03-01T00:49:25;13.87;;;6.83;;
54983;SDS011;40884;53.562;9.940;2023-03-01T00:50:25;11.40;;;7.17;;
54983;SDS011;40884;53.562;9.940;2023-03-01T00:51:26;12.23;;;7.00;;
54983;SDS011;40884;53.562;9.940;2023-03-01T00:52:26;14.98;;;6.95;;
54983;SDS011;40884;53.562;9.940;2023-03-01T00:53:26;12.73;;;7.40;;
54983;SDS011;40884;53.562;9.940;2023-03-01T00:54:26;11.30;;;7.30;;
54983;SDS011;40884;53.562;9.940;2023-03-01T00:55:27;12.77;;;7.47;;
54983;SDS011;40884;53.562;9.940;2023-03-01T00:56:27;13.63;;;7.30;;
54983;SDS011;40884;53.562;9.940;2023-03-01T00:57:27;10.60;;;6.87;;
54983;SDS011;40884;53.562;9.940;2023-03-01T00:58:27;10.97;;;6.90;;
54983;SDS011;40884;53.562;9.940;2023-03-01T00:59:27;10.37;;;6.97;;
54983;SDS011;40884;53.562;9.940;2023-03-01T01:00:27;11.50;;;6.70;;
54983;SDS011;40884;53.562;9.940;2023-03-01T01:01:28;14.87;;;7.20;;
54983;SDS011;40884;53.562;9.940;2023-03-01T01:02:29;12.00;;;7.30;;
54983;SDS011;40884;53.562;9.940;2023-03-01T01:03:29;12.23;;;7.37;;
54983;SDS011;40884;53.562;9.940;2023-03-01T01:04:29;11.47;;;7.20;;
54983;SDS011;40884;53.562;9.940;2023-03-01T01:05:30;10.90;;;7.40;;
54983;SDS011;40884;53.562;9.940;2023-03-01T01:06:35;12.65;;;7.30;;
54983;SDS011;40884;53.562;9.940;2023-03-01T01:07:35;11.38;;;6.93;;
54983;SDS011;40884;53.562;9.940;2023-03-01T01:08:35;11.47;;;7.37;;
54983;SDS011;40884;53.562;9.940;2023-03-01T01:09:35;12.03;;;7.03;;
54983;SDS011;40884;53.562;9.940;2023-03-01T01:10:35;11.70;;;6.93;;
54983;SDS011;40884;53.562;9.940;2023-03-01T01:11:35;12.27;;;6.93;;
54983;SDS011;40884;53.562;9.940;2023-03-01T01:12:36;9.40;;;6.27;;
54983;SDS011;40884;53.562;9.940;2023-03-01T01:13:36;10.23;;;6.23;;
54983;SDS011;40884;53.562;9.940;2023-03-01T01:14:36;9.87;;;6.50;;
54983;SDS011;40884;53.562;9.940;2023-03-01T01:15:36;12.43;;;6.70;;
54983;SDS011;40884;53.562;9.940;2023-03-01T01:16:37;8.87;;;5.93;;
54983;SDS011;40884;53.562;9.940;2023-03-01T01:17:37;9.33;;;6.17;;
54983;SDS011;40884;53.562;9.940;2023-03-01T01:18:37;11.37;;;6.27;;
54983;SDS011;40884;53.562;9.940;2023-03-01T01:19:37;12.07;;;7.87;;
54983;SDS011;40884;53.562;9.940;2023-03-01T01:20:37;10.47;;;7.13;;
54983;SDS011;40884;53.562;9.940;2023-03-01T01:21:37;8.07;;;6.27;;
54983;SDS011;40884;53.562;9.940;2023-03-01T01:22:38;9.80;;;6.47;;
54983;SDS011;40884;53.562;9.940;2023-03-01T01:23:38;12.60;;;6.93;;
54983;SDS011;40884;53.562;9.940;2023-03-01T01:24:40;10.75;;;7.00;;
54983;SDS011;40884;53.562;9.940;2023-03-01T01:25:40;10.00;;;6.40;;
54983;SDS011;40884;53.562;9.940;2023-03-01T01:26:40;9.07;;;6.17;;
54983;SDS011;40884;53.562;9.940;2023-03-01T01:27:40;7.93;;;5.80;;
54983;SDS011;40884;53.562;9.940;2023-03-01T01:28:40;8.63;;;5.73;;
54983;SDS011;40884;53.562;9.940;2023-03-01T01:29:40;8.80;;;5.97;;
54983;SDS011;40884;53.562;9.940;2023-03-01T01:30:40;8.00;;;6.00;;
54983;SDS011;40884;53.562;9.940;2023-03-01T01:31:42;8.65;;;5.30;;
54983;SDS011;40884;53.562;9.940;2023-03-01T01:32:42;10.77;;;5.83;;
54983;SDS011;40884;53.562;9.940;2023-03-01T01:33:42;9.23;;;5.50;;
54983;SDS011;40884;53.562;9.940;2023-03-01T01:34:42;7.90;;;6.03;;
54983;SDS011;40884;53.562;9.940;2023-03-01T01:35:44;9.57;;;5.73;;
54983;SDS011;40884;53.562;9.940;2023-03-01T01:36:47;8.07;;;5.32;;
54983;SDS011;40884;53.562;9.940;2023-03-01T01:37:48;8.73;;;5.38;;
54983;SDS011;40884;53.562;9.940;2023-03-01T01:38:48;8.27;;;5.77;;
54983;SDS011;40884;53.562;9.940;2023-03-01T01:39:49;7.50;;;5.40;;
54983;SDS011;40884;53.562;9.940;2023-03-01T01:40:49;9.30;;;5.23;;
54983;SDS011;40884;53.562;9.940;2023-03-01T01:41:50;6.80;;;5.37;;
54983;SDS011;40884;53.562;9.940;2023-03-01T01:42:50;8.20;;;5.30;;
54983;SDS011;40884;53.562;9.940;2023-03-01T01:46:29;8.82;;;5.85;;
54983;SDS011;40884;53.562;9.940;2023-03-01T01:47:29;9.60;;;5.32;;
54983;SDS011;40884;53.562;9.940;2023-03-01T01:48:34;8.23;;;5.47;;
54983;SDS011;40884;53.562;9.940;2023-03-01T01:49:40;7.55;;;5.68;;
54983;SDS011;40884;53.562;9.940;2023-03-01T01:50:42;10.00;;;5.88;;
54983;SDS011;40884;53.562;9.940;2023-03-01T01:51:43;6.33;;;5.07;;
54983;SDS011;40884;53.562;9.940;2023-03-01T01:52:45;7.53;;;5.63;;
54983;SDS011;40884;53.562;9.940;2023-03-01T01:53:47;8.38;;;5.38;;
54983;SDS011;40884;53.562;9.940;2023-03-01T01:55:51;7.93;;;5.37;;
54983;SDS011;40884;53.562;9.940;2023-03-01T01:56:56;8.32;;;5.38;;
54983;SDS011;40884;53.562;9.940;2023-03-01T01:57:58;9.55;;;5.57;;
54983;SDS011;40884;53.562;9.940;2023-03-01T01:58:59;9.43;;;5.93;;
54983;SDS011;40884;53.562;9.940;2023-03-01T02:00:03;10.38;;;6.10;;
54983;SDS011;40884;53.562;9.940;2023-03-01T02:01:13;9.52;;;5.97;;
54983;SDS011;40884;53.562;9.940;2023-03-01T02:02:13;7.13;;;5.80;;
54983;SDS011;40884;53.562;9.940;2023-03-01T02:03:14;8.57;;;5.47;;
54983;SDS011;40884;53.562;9.940;2023-03-01T02:04:16;7.38;;;5.55;;
54983;SDS011;40884;53.562;9.940;2023-03-01T02:05:28;7.93;;;5.77;;
54983;SDS011;40884;53.562;9.940;2023-03-01T02:06:37;9.02;;;5.43;;
54983;SDS011;40884;53.562;9.940;2023-03-01T02:07:38;8.68;;;4.95;;
54983;SDS011;40884;53.562;9.940;2023-03-01T02:08:40;6.53;;;5.10;;
54983;SDS011;40884;53.562;9.940;2023-03-01T02:09:41;7.18;;;5.30;;
54983;SDS011;40884;53.562;9.940;2023-03-01T02:10:42;7.70;;;5.25;;
54983;SDS011;40884;53.562;9.940;2023-03-01T02:11:44;7.10;;;4.68;;
54983;SDS011;40884;53.562;9.940;2023-03-01T02:12:44;5.43;;;4.53;;
54983;SDS011;40884;53.562;9.940;2023-03-01T02:13:44;5.67;;;4.70;;
54983;SDS011;40884;53.562;9.940;2023-03-01T02:14:47;6.63;;;5.13;;
54983;SDS011;40884;53.562;9.940;2023-03-01T02:15:47;7.83;;;4.77;;
54983;SDS011;40884;53.562;9.940;2023-03-01T02:16:47;7.90;;;5.37;;
54983;SDS011;40884;53.562;9.940;2023-03-01T02:17:47;6.70;;;4.93;;
54983;SDS011;40884;53.562;9.940;2023-03-01T02:18:48;9.90;;;5.10;;
54983;SDS011;40884;53.562;9.940;2023-03-01T02:21:55;7.07;;;5.17;;
54983;SDS011;40884;53.562;9.940;2023-03-01T02:22:58;7.47;;;4.65;;
54983;SDS011;40884;53.562;9.940;2023-03-01T02:24:07;8.60;;;5.32;;
54983;SDS011;40884;53.562;9.940;2023-03-01T02:26:25;6.05;;;4.85;;
54983;SDS011;40884;53.562;9.940;2023-03-01T02:27:29;6.40;;;4.60;;
54983;SDS011;40884;53.562;9.940;2023-03-01T02:28:36;6.68;;;4.57;;
54983;SDS011;40884;53.562;9.940;2023-03-01T02:29:36;6.15;;;4.65;;
54983;SDS011;40884;53.562;9.940;2023-03-01T02:30:36;6.13;;;4.73;;
54983;SDS011;40884;53.562;9.940;2023-03-01T02:31:37;6.67;;;4.90;;
54983;SDS011;40884;53.562;9.940;2023-03-01T02:32:39;5.53;;;4.40;;
54983;SDS011;40884;53.562;9.940;2023-03-01T02:33:39;6.63;;;4.22;;
54983;SDS011;40884;53.562;9.940;2023-03-01T02:34:39;6.53;;;4.30;;
54983;SDS011;40884;53.562;9.940;2023-03-01T02:35:40;6.00;;;4.07;;
54983;SDS011;40884;53.562;9.940;2023-03-01T02:37:22;6.53;;;4.30;;
54983;SDS011;40884;53.562;9.940;2023-03-01T02:38:03;6.35;;;4.25;;
54983;SDS011;40884;53.562;9.940;2023-03-01T02:39:06;5.40;;;4.30;;
54983;SDS011;40884;53.562;9.940;2023-03-01T02:40:08;5.68;;;4.50;;
54983;SDS011;40884;53.562;9.940;2023-03-01T02:41:09;5.25;;;4.38;;
54983;SDS011;40884;53.562;9.940;2023-03-01T02:42:11;5.80;;;4.55;;
54983;SDS011;40884;53.562;9.940;2023-03-01T02:43:12;7.93;;;4.78;;
54983;SDS011;40884;53.562;9.940;2023-03-01T02:44:14;5.38;;;4.45;;
54983;SDS011;40884;53.562;9.940;2023-03-01T02:45:14;7.97;;;4.40;;
54983;SDS011;40884;53.562;9.940;2023-03-01T02:46:16;5.37;;;4.07;;
54983;SDS011;40884;53.562;9.940;2023-03-01T02:47:16;5.68;;;4.13;;
54983;SDS011;40884;53.562;9.940;2023-03-01T02:48:17;7.33;;;4.77;;
54983;SDS011;40884;53.562;9.940;2023-03-01T02:49:18;6.77;;;4.73;;
54983;SDS011;40884;53.562;9.940;2023-03-01T02:50:25;7.05;;;4.55;;
54983;SDS011;40884;53.562;9.940;2023-03-01T02:52:51;6.90;;;5.05;;
54983;SDS011;40884;53.562;9.940;2023-03-01T02:55:03;7.28;;;4.90;;
54983;SDS011;40884;53.562;9.940;2023-03-01T02:56:04;7.75;;;5.15;;
54983;SDS011;40884;53.562;9.940;2023-03-01T02:57:04;6.83;;;5.23;;
54983;SDS011;40884;53.562;9.940;2023-03-01T02:58:05;5.95;;;4.72;;
54983;SDS011;40884;53.562;9.940;2023-03-01T02:59:07;8.63;;;5.07;;
54983;SDS011;40884;53.562;9.940;2023-03-01T03:00:09;6.50;;;5.10;;
54983;SDS011;40884;53.562;9.940;2023-03-01T03:01:11;7.03;;;4.90;;
54983;SDS011;40884;53.562;9.940;2023-03-01T03:02:18;6.90;;;4.97;;
54983;SDS011;40884;53.562;9.940;2023-03-01T03:03:20;6.55;;;4.80;;
54983;SDS011;40884;53.562;9.940;2023-03-01T03:04:20;7.18;;;5.13;;
54983;SDS011;40884;53.562;9.940;2023-03-01T03:05:23;7.10;;;5.03;;
54983;SDS011;40884;53.562;9.940;2023-03-01T03:06:26;7.10;;;5.30;;
54983;SDS011;40884;53.562;9.940;2023-03-01T03:07:27;5.63;;;4.73;;
54983;SDS011;40884;53.562;9.940;2023-03-01T03:08:27;7.13;;;4.80;;
54983;SDS011;40884;53.562;9.940;2023-03-01T03:09:27;6.93;;;4.67;;
54983;SDS011;40884;53.562;9.940;2023-03-01T03:10:31;8.23;;;4.80;;
54983;SDS011;40884;53.562;9.940;2023-03-01T03:11:32;6.97;;;4.30;;
54983;SDS011;40884;53.562;9.940;2023-03-01T03:12:32;6.43;;;4.33;;
54983;SDS011;40884;53.562;9.940;2023-03-01T03:13:32;6.27;;;4.40;;
54983;SDS011;40884;53.562;9.940;2023-03-01T03:14:32;8.03;;;4.37;;
54983;SDS011;40884;53.562;9.940;2023-03-01T03:15:33;5.97;;;4.77;;
54983;SDS011;40884;53.562;9.940;2023-03-01T03:16:34;5.27;;;3.90;;
54983;SDS011;40884;53.562;9.940;2023-03-01T03:17:35;7.07;;;4.40;;
54983;SDS011;40884;53.562;9.940;2023-03-01T03:18:35;6.72;;;4.90;;
54983;SDS011;40884;53.562;9.940;2023-03-01T03:19:36;6.53;;;4.17;;
54983;SDS011;40884;53.562;9.940;2023-03-01T03:20:36;7.53;;;4.27;;
54983;SDS011;40884;53.562;9.940;2023-03-01T03:21:36;6.17;;;4.37;;
54983;SDS011;40884;53.562;9.940;2023-03-01T03:22:38;5.70;;;4.17;;
54983;SDS011;40884;53.562;9.940;2023-03-01T03:23:38;6.25;;;3.97;;
54983;SDS011;40884;53.562;9.940;2023-03-01T03:24:38;7.53;;;4.87;;
54983;SDS011;40884;53.562;9.940;2023-03-01T03:25:38;6.73;;;3.93;;
54983;SDS011;40884;53.562;9.940;2023-03-01T03:26:38;5.33;;;3.73;;
54983;SDS011;40884;53.562;9.940;2023-03-01T03:27:39;6.40;;;3.80;;
54983;SDS011;40884;53.562;9.940;2023-03-01T03:28:39;6.40;;;4.03;;
54983;SDS011;40884;53.562;9.940;2023-03-01T03:29:40;8.07;;;4.50;;
54983;SDS011;40884;53.562;9.940;2023-03-01T03:30:40;5.90;;;3.83;;
54983;SDS011;40884;53.562;9.940;2023-03-01T03:31:40;6.43;;;3.70;;
54983;SDS011;40884;53.562;9.940;2023-03-01T03:32:41;4.80;;;3.87;;
54983;SDS011;40884;53.562;9.940;2023-03-01T03:33:41;4.53;;;3.50;;
54983;SDS011;40884;53.562;9.940;2023-03-01T03:34:42;5.80;;;3.87;;
54983;SDS011;40884;53.562;9.940;2023-03-01T03:35:43;6.03;;;4.13;;
54983;SDS011;40884;53.562;9.940;2023-03-01T03:36:43;6.50;;;4.13;;
54983;SDS011;40884;53.562;9.940;2023-03-01T03:37:43;6.57;;;4.00;;
54983;SDS011;40884;53.562;9.940;2023-03-01T03:38:44;7.83;;;4.00;;
54983;SDS011;40884;53.562;9.940;2023-03-01T03:39:44;8.40;;;4.50;;
54983;SDS011;40884;53.562;9.940;2023-03-01T03:40:48;5.80;;;4.60;;
54983;SDS011;40884;53.562;9.940;2023-03-01T03:41:49;9.10;;;4.07;;
54983;SDS011;40884;53.562;9.940;2023-03-01T03:42:49;5.70;;;3.93;;
54983;SDS011;40884;53.562;9.940;2023-03-01T03:43:49;5.70;;;4.17;;
54983;SDS011;40884;53.562;9.940;2023-03-01T03:44:49;4.80;;;3.73;;
54983;SDS011;40884;53.562;9.940;2023-03-01T03:45:50;6.30;;;3.90;;
54983;SDS011;40884;53.562;9.940;2023-03-01T03:46:50;5.60;;;4.03;;
54983;SDS011;40884;53.562;9.940;2023-03-01T03:47:50;5.47;;;3.67;;
54983;SDS011;40884;53.562;9.940;2023-03-01T03:48:50;7.33;;;4.20;;
54983;SDS011;40884;53.562;9.940;2023-03-01T03:49:50;4.47;;;3.43;;
54983;SDS011;40884;53.562;9.940;2023-03-01T03:50:51;5.20;;;3.60;;
54983;SDS011;40884;53.562;9.940;2023-03-01T03:51:52;5.65;;;3.50;;
54983;SDS011;40884;53.562;9.940;2023-03-01T03:52:52;5.20;;;3.77;;
54983;SDS011;40884;53.562;9.940;2023-03-01T03:53:52;4.83;;;3.40;;
54983;SDS011;40884;53.562;9.940;2023-03-01T03:54:52;4.47;;;3.50;;
54983;SDS011;40884;53.562;9.940;2023-03-01T03:55:53;4.73;;;3.50;;
54983;SDS011;40884;53.562;9.940;2023-03-01T03:56:53;5.57;;;3.37;;
54983;SDS011;40884;53.562;9.940;2023-03-01T03:57:53;6.00;;;3.40;;
54983;SDS011;40884;53.562;9.940;2023-03-01T03:58:53;4.00;;;3.40;;
54983;SDS011;40884;53.562;9.940;2023-03-01T04:00:57;4.43;;;3.13;;
54983;SDS011;40884;53.562;9.940;2023-03-01T04:01:57;3.87;;;3.00;;
54983;SDS011;40884;53.562;9.940;2023-03-01T04:02:57;4.20;;;3.33;;
54983;SDS011;40884;53.562;9.940;2023-03-01T04:03:57;5.40;;;3.20;;
54983;SDS011;40884;53.562;9.940;2023-03-01T04:04:57;4.03;;;3.00;;
54983;SDS011;40884;53.562;9.940;2023-03-01T04:05:58;5.13;;;3.70;;
54983;SDS011;40884;53.562;9.940;2023-03-01T04:06:58;6.77;;;3.67;;
54983;SDS011;40884;53.562;9.940;2023-03-01T04:07:59;8.43;;;4.83;;
54983;SDS011;40884;53.562;9.940;2023-03-01T04:08:59;5.87;;;4.13;;
54983;SDS011;40884;53.562;9.940;2023-03-01T04:09:59;8.33;;;4.80;;
54983;SDS011;40884;53.562;9.940;2023-03-01T04:11:00;9.03;;;3.97;;
54983;SDS011;40884;53.562;9.940;2023-03-01T04:12:00;8.30;;;4.70;;
54983;SDS011;40884;53.562;9.940;2023-03-01T04:13:00;7.10;;;4.37;;
54983;SDS011;40884;53.562;9.940;2023-03-01T04:14:01;6.70;;;4.43;;
54983;SDS011;40884;53.562;9.940;2023-03-01T04:15:01;6.80;;;4.37;;
54983;SDS011;40884;53.562;9.940;2023-03-01T04:16:02;6.37;;;4.03;;
54983;SDS011;40884;53.562;9.940;2023-03-01T04:17:02;6.57;;;3.80;;
54983;SDS011;40884;53.562;9.940;2023-03-01T04:18:03;5.70;;;4.30;;
54983;SDS011;40884;53.562;9.940;2023-03-01T04:19:03;7.27;;;4.47;;
54983;SDS011;40884;53.562;9.940;2023-03-01T04:20:03;6.53;;;4.73;;
54983;SDS011;40884;53.562;9.940;2023-03-01T04:21:03;7.57;;;4.10;;
54983;SDS011;40884;53.562;9.940;2023-03-01T04:22:03;7.13;;;4.07;;
54983;SDS011;40884;53.562;9.940;2023-03-01T04:23:07;8.30;;;4.47;;
54983;SDS011;40884;53.562;9.940;2023-03-01T04:24:08;7.63;;;4.05;;
54983;SDS011;40884;53.562;9.940;2023-03-01T04:25:08;5.73;;;3.90;;
54983;SDS011;40884;53.562;9.940;2023-03-01T04:26:08;6.43;;;4.37;;
54983;SDS011;40884;53.562;9.940;2023-03-01T04:27:08;7.20;;;4.13;;
54983;SDS011;40884;53.562;9.940;2023-03-01T04:28:08;6.53;;;3.93;;
54983;SDS011;40884;53.562;9.940;2023-03-01T04:29:08;5.20;;;3.70;;
54983;SDS011;40884;53.562;9.940;2023-03-01T04:30:09;6.07;;;3.70;;
54983;SDS011;40884;53.562;9.940;2023-03-01T04:31:10;5.63;;;3.67;;
54983;SDS011;40884;53.562;9.940;2023-03-01T04:32:11;5.32;;;3.20;;
54983;SDS011;40884;53.562;9.940;2023-03-01T04:33:11;6.17;;;3.43;;
54983;SDS011;40884;53.562;9.940;2023-03-01T04:34:11;5.33;;;3.40;;
54983;SDS011;40884;53.562;9.940;2023-03-01T04:35:11;4.50;;;3.27;;
54983;SDS011;40884;53.562;9.940;2023-03-01T04:36:12;4.70;;;2.97;;
54983;SDS011;40884;53.562;9.940;2023-03-01T04:37:12;4.37;;;3.03;;
54983;SDS011;40884;53.562;9.940;2023-03-01T04:38:12;4.73;;;2.80;;
54983;SDS011;40884;53.562;9.940;2023-03-01T04:39:12;4.00;;;2.90;;
54983;SDS011;40884;53.562;9.940;2023-03-01T04:40:13;4.20;;;3.00;;
54983;SDS011;40884;53.562;9.940;2023-03-01T04:41:13;4.60;;;3.07;;
54983;SDS011;40884;53.562;9.940;2023-03-01T04:42:14;6.28;;;2.90;;
54983;SDS011;40884;53.562;9.940;2023-03-01T04:43:15;4.43;;;3.20;;
54983;SDS011;40884;53.562;9.940;2023-03-01T04:44:15;4.07;;;2.60;;
54983;SDS011;40884;53.562;9.940;2023-03-01T04:45:15;4.90;;;2.80;;
54983;SDS011;40884;53.562;9.940;2023-03-01T04:46:16;3.43;;;2.80;;
54983;SDS011;40884;53.562;9.940;2023-03-01T04:47:17;4.20;;;2.92;;
54983;SDS011;40884;53.562;9.940;2023-03-01T04:48:17;4.53;;;3.10;;
54983;SDS011;40884;53.562;9.940;2023-03-01T04:49:17;3.60;;;2.93;;
54983;SDS011;40884;53.562;9.940;2023-03-01T04:50:18;4.07;;;3.03;;
54983;SDS011;40884;53.562;9.940;2023-03-01T04:51:18;5.53;;;3.27;;
54983;SDS011;40884;53.562;9.940;2023-03-01T04:52:18;5.53;;;3.57;;
54983;SDS011;40884;53.562;9.940;2023-03-01T04:53:18;5.10;;;3.20;;
54983;SDS011;40884;53.562;9.940;2023-03-01T04:54:18;4.43;;;3.03;;
54983;SDS011;40884;53.562;9.940;2023-03-01T04:55:18;4.90;;;3.37;;
54983;SDS011;40884;53.562;9.940;2023-03-01T04:56:18;5.83;;;3.57;;
54983;SDS011;40884;53.562;9.940;2023-03-01T04:57:19;4.00;;;3.20;;
54983;SDS011;40884;53.562;9.940;2023-03-01T04:58:20;5.80;;;2.97;;
54983;SDS011;40884;53.562;9.940;2023-03-01T04:59:20;6.17;;;3.40;;
54983;SDS011;40884;53.562;9.940;2023-03-01T05:00:20;4.07;;;3.23;;
54983;SDS011;40884;53.562;9.940;2023-03-01T05:01:21;6.07;;;3.23;;
54983;SDS011;40884;53.562;9.940;2023-03-01T05:02:21;5.03;;;3.07;;
54983;SDS011;40884;53.562;9.940;2023-03-01T05:03:21;4.37;;;3.10;;
54983;SDS011;40884;53.562;9.940;2023-03-01T05:04:22;5.23;;;3.20;;
54983;SDS011;40884;53.562;9.940;2023-03-01T05:05:32;5.27;;;3.20;;
54983;SDS011;40884;53.562;9.940;2023-03-01T05:06:33;3.65;;;3.13;;
54983;SDS011;40884;53.562;9.940;2023-03-01T05:07:33;5.60;;;2.90;;
54983;SDS011;40884;53.562;9.940;2023-03-01T05:08:33;4.80;;;2.97;;
54983;SDS011;40884;53.562;9.940;2023-03-01T05:09:33;4.53;;;2.80;;
54983;SDS011;40884;53.562;9.940;2023-03-01T05:10:35;5.40;;;2.90;;
54983;SDS011;40884;53.562;9.940;2023-03-01T05:11:35;4.97;;;2.90;;
54983;SDS011;40884;53.562;9.940;2023-03-01T05:12:35;6.57;;;3.10;;
54983;SDS011;40884;53.562;9.940;2023-03-01T05:13:36;6.73;;;2.83;;
54983;SDS011;40884;53.562;9.940;2023-03-01T05:14:36;3.43;;;2.50;;
54983;SDS011;40884;53.562;9.940;2023-03-01T05:15:36;7.07;;;2.97;;
54983;SDS011;40884;53.562;9.940;2023-03-01T05:16:37;13.43;;;3.37;;
54983;SDS011;40884;53.562;9.940;2023-03-01T05:17:37;6.93;;;3.03;;
54983;SDS011;40884;53.562;9.940;2023-03-01T05:18:37;5.43;;;3.00;;
54983;SDS011;40884;53.562;9.940;2023-03-01T05:19:37;5.77;;;3.30;;
54983;SDS011;40884;53.562;9.940;2023-03-01T05:20:37;7.27;;;3.27;;
54983;SDS011;40884;53.562;9.940;2023-03-01T05:21:38;5.60;;;2.60;;
54983;SDS011;40884;53.562;9.940;2023-03-01T05:22:38;4.30;;;2.70;;
54983;SDS011;40884;53.562;9.940;2023-03-01T05:23:38;7.67;;;2.90;;
54983;SDS011;40884;53.562;9.940;2023-03-01T05:24:38;3.90;;;2.40;;
54983;SDS011;40884;53.562;9.940;2023-03-01T05:25:39;4.77;;;2.97;;
54983;SDS011;40884;53.562;9.940;2023-03-01T05:26:39;6.73;;;3.00;;
54983;SDS011;40884;53.562;9.940;2023-03-01T05:27:39;5.80;;;3.13;;
54983;SDS011;40884;53.562;9.940;2023-03-01T05:28:39;5.73;;;2.63;;
54983;SDS011;40884;53.562;9.940;2023-03-01T05:29:39;7.10;;;3.13;;
54983;SDS011;40884;53.562;9.940;2023-03-01T05:30:39;8.43;;;3.00;;
54983;SDS011;40884;53.562;9.940;2023-03-01T05:31:39;6.90;;;3.40;;
54983;SDS011;40884;53.562;9.940;2023-03-01T05:32:44;5.87;;;3.13;;
54983;SDS011;40884;53.562;9.940;2023-03-01T05:33:44;7.75;;;3.42;;
54983;SDS011;40884;53.562;9.940;2023-03-01T05:34:45;9.57;;;3.40;;
54983;SDS011;40884;53.562;9.940;2023-03-01T05:35:45;7.73;;;3.40;;
54983;SDS011;40884;53.562;9.940;2023-03-01T05:36:45;5.63;;;3.47;;
54983;SDS011;40884;53.562;9.940;2023-03-01T05:37:46;5.90;;;3.90;;
54983;SDS011;40884;53.562;9.940;2023-03-01T05:38:47;4.43;;;3.28;;
54983;SDS011;40884;53.562;9.940;2023-03-01T05:39:47;9.70;;;3.80;;
54983;SDS011;40884;53.562;9.940;2023-03-01T05:40:48;7.77;;;3.17;;
54983;SDS011;40884;53.562;9.940;2023-03-01T05:41:48;8.27;;;3.30;;
54983;SDS011;40884;53.562;9.940;2023-03-01T05:42:52;5.93;;;3.20;;
54983;SDS011;40884;53.562;9.940;2023-03-01T05:43:53;5.20;;;3.28;;
54983;SDS011;40884;53.562;9.940;2023-03-01T05:44:53;5.70;;;3.43;;
54983;SDS011;40884;53.562;9.940;2023-03-01T05:45:53;5.97;;;3.00;;
54983;SDS011;40884;53.562;9.940;2023-03-01T05:46:53;4.93;;;3.20;;
54983;SDS011;40884;53.562;9.940;2023-03-01T05:47:54;7.90;;;3.73;;
54983;SDS011;40884;53.562;9.940;2023-03-01T05:48:54;5.20;;;3.37;;
54983;SDS011;40884;53.562;9.940;2023-03-01T05:49:54;6.67;;;3.50;;
54983;SDS011;40884;53.562;9.940;2023-03-01T05:50:54;5.20;;;3.53;;
54983;SDS011;40884;53.562;9.940;2023-03-01T05:51:54;4.50;;;3.10;;
54983;SDS011;40884;53.562;9.940;2023-03-01T05:52:59;6.93;;;3.53;;
54983;SDS011;40884;53.562;9.940;2023-03-01T05:53:59;5.18;;;3.25;;
54983;SDS011;40884;53.562;9.940;2023-03-01T05:54:59;6.20;;;3.20;;
54983;SDS011;40884;53.562;9.940;2023-03-01T05:56:03;5.00;;;2.87;;
54983;SDS011;40884;53.562;9.940;2023-03-01T05:57:03;4.13;;;2.95;;
54983;SDS011;40884;53.562;9.940;2023-03-01T05:58:05;9.40;;;3.10;;
54983;SDS011;40884;53.562;9.940;2023-03-01T05:59:05;8.10;;;3.53;;
54983;SDS011;40884;53.562;9.940;2023-03-01T06:00:06;7.37;;;3.27;;
54983;SDS011;40884;53.562;9.940;2023-03-01T06:01:12;5.57;;;3.08;;
54983;SDS011;40884;53.562;9.940;2023-03-01T06:02:12;8.83;;;3.20;;
54983;SDS011;40884;53.562;9.940;2023-03-01T06:03:13;8.27;;;3.07;;
54983;SDS011;40884;53.562;9.940;2023-03-01T06:04:13;9.97;;;3.07;;
54983;SDS011;40884;53.562;9.940;2023-03-01T06:05:14;7.93;;;3.30;;
54983;SDS011;40884;53.562;9.940;2023-03-01T06:06:14;7.20;;;3.00;;
54983;SDS011;40884;53.562;9.940;2023-03-01T06:07:14;5.67;;;3.03;;
54983;SDS011;40884;53.562;9.940;2023-03-01T06:08:14;6.00;;;3.20;;
54983;SDS011;40884;53.562;9.940;2023-03-01T06:09:14;6.93;;;3.80;;
54983;SDS011;40884;53.562;9.940;2023-03-01T06:10:15;6.27;;;3.27;;
54983;SDS011;40884;53.562;9.940;2023-03-01T06:11:15;4.77;;;3.23;;
54983;SDS011;40884;53.562;9.940;2023-03-01T06:12:15;6.37;;;3.60;;
54983;SDS011;40884;53.562;9.940;2023-03-01T06:13:15;6.53;;;3.67;;
54983;SDS011;40884;53.562;9.940;2023-03-01T06:14:15;8.13;;;3.53;;
54983;SDS011;40884;53.562;9.940;2023-03-01T06:15:16;4.83;;;3.10;;
54983;SDS011;40884;53.562;9.940;2023-03-01T06:16:16;6.60;;;3.13;;
54983;SDS011;40884;53.562;9.940;2023-03-01T06:17:16;9.33;;;3.00;;